Thursday, January 18, 2018, 12:13 AM GMT
Back to Local

CYCX, Gagetown Can-Mil

Location: , , Canada Lat: 45.833
Local Time: 12:13 AM GMT ( 0:13 GMT) Lon: -66.433
Time Zone: GMT Elev: 167 ft

Show me the last for .
Show Decoded

2018-01-18 00:00 METAR CYCX 180000Z CCA 05002KT 1/2SM SN VV004 M05/M06 A3010 RMK SN8 DA-2442FT
                 PRESFR /S06/ SLP197 =
2018-01-17 23:00 METAR CYCX 172300Z 04002KT 1/2SM SN VV003 M05/M07 A3014 RMK SN8 DA-2502FT /S04/
                 SLP212 =
2018-01-17 22:42 METAR CYCX 172242Z 03003KT 1/2SM SN VV003 M05/M07 A3015 RMK SN8 DA-2527FT SLP215
                 =
2018-01-17 22:16 METAR CYCX 172216Z 03003KT 5/8SM -SN VV006 M05/M07 A3017 RMK SN8 DA-2550FT
                 SLP221 =
2018-01-17 22:00 METAR CYCX 172200Z 03004KT 3/4SM -SN VV007 M05/M07 A3018 RMK SN8 DA-2562FT
                 SLP223 =
2018-01-17 21:00 METAR CYCX 172100Z 05002KT 1SM -SN VV010 M05/M07 A3019 RMK SN8 DA-2547FT SLP228
                 =
2018-01-17 20:00 METAR CYCX 172000Z 36003KT 1SM -SN VV009 M05/M07 A3024 RMK SN8 DA-2605FT /S01/
                 SLP242 =
2018-01-17 19:00 METAR CYCX 171900Z 36003KT 5/8SM -SN VV008 M05/M07 A3025 RMK SN8 DA-2657FT
                 SLP248 =
2018-01-17 18:19 METAR CYCX 171819Z 02002KT 1 1/4SM -SN VV008 M06/M08 A3026 RMK SN8 DA-2735FT VIS
                 VRB 3/4-1 3/4 CIG VRB 6-10 SLP251 =
2018-01-17 18:00 METAR CYCX 171800Z 35003KT 1 1/4SM -SN VV010 M06/M08 A3027 RMK SN8 DA-2774FT VIS
                 VRB 3/4-1 3/4 SLP255 =
2018-01-17 17:00 METAR CYCX 171700Z CCA 36004KT 1 1/4SM -SN VV011 M06/M08 A3030 RMK SN8 DA-2862FT
                 VIS VRB 3/4-1 3/4 CIG VRB 8-14 SLP266 =
2018-01-17 16:00 METAR CYCX 171600Z 06002KT 2SM -SN VV012 M06/M08 A3035 RMK SN8 DA-2867FT VIS VRB
                 1 1/2-2 1/2 CIG VRB 9-15 /S02/ SLP281 =
2018-01-17 15:25 METAR CYCX 171525Z 03002KT 1 1/2SM -SN VV012 M06/M08 A3038 RMK SN8 DA-2954FT VIS
                 VRB 1-2 CIG VRB 9-15 SLP291 =
2018-01-17 15:00 METAR CYCX 171500Z CCA 06002KT 1SM -SN VV009 M07/M09 A3039 RMK SN8 DA-3046FT VIS
                 VRB 3/4-1 1/4 CIG VRB 6-12 SLP296 =
2018-01-17 14:00 METAR CYCX 171400Z 07002KT 1SM -SN VV010 M09/M10 A3041 RMK SN8 DA-3270FT VIS VRB
                 3/4-1 1/4 /S01/ SLP303 =
2018-01-17 13:00 METAR CYCX 171300Z 00000KT 1 1/2SM -SN OVC020 M10/M11 A3042 RMK SC8 DA-3445FT
                 VIS VRB 1-2 SLP307 =
2018-01-17 12:00 METAR CYCX 171200Z 00000KT 2SM -SN OVC020 M10/M12 A3043 RMK SC8 DA-3551FT VIS
                 VRB 1 1/2-2 1/2 SLP307 =
2018-01-17 11:20 METAR CYCX 171120Z 13002KT 2SM -SN OVC020 M11/M12 A3044 RMK SC8 DA-3590FT VIS
                 VRB 1 1/2-2 1/2 SLP311 =
2018-01-17 11:10 METAR CYCX 171110Z 14002KT 3SM -SN OVC030 M11/M13 A3044 RMK SC8 DA-3604FT VIS
                 VRB 2 1/4-4 SLP312 =
2018-01-17 11:00 METAR CYCX 171100Z 00000KT 2SM -SN OVC035 M11/M13 A3044 RMK SC8 DA-3631FT VIS
                 VRB 1 1/2-2 1/2 SLP313 =
2018-01-17 10:00 METAR CYCX 171000Z 00000KT 6SM -SN OVC047 M11/M13 A3044 RMK SC8 DA-3699FT SLP311
                 =
2018-01-17 09:47 METAR CYCX 170947Z 00000KT 9SM -SN OVC047 M12/M14 A3043 RMK SC8 DA-3728FT SLP309
                 =
2018-01-17 09:00 METAR CYCX 170900Z 00000KT 15SM OVC060 M12/M14 A3043 RMK SC8 DA-3783FT SLP310 =
2018-01-17 08:00 METAR CYCX 170800Z 00000KT 15SM OVC050 M12/M14 A3043 RMK SC8 DA-3824FT SLP311 =
2018-01-17 07:00 METAR CYCX 170700Z 32003KT 15SM BKN053 M13/M14 A3045 RMK SC6 DA-3861FT SLP314 =
2018-01-17 06:00 METAR CYCX 170600Z 17004KT 15SM BKN150 M14/M15 A3044 RMK AC5 DA-4000FT SLP314 =
2018-01-17 05:00 METAR CYCX 170500Z 00000KT 15SM BKN150 M14/M16 A3044 RMK AC5 DA-4027FT SLP313 =
2018-01-17 04:00 METAR CYCX 170400Z 00000KT 15SM FEW150 M13/M15 A3046 RMK AC2 DA-3940FT SLP318 =
2018-01-17 03:00 METAR CYCX 170300Z 19003KT 15SM FEW090 M14/M16 A3047 RMK AC1 DA-4145FT SLP324 =
2018-01-17 02:00 METAR CYCX 170200Z 20003KT 15SM FEW090 M14/M16 A3047 RMK AC1 DA-4075FT SLP322 =
2018-01-17 01:00 METAR CYCX 170100Z 24003KT 15SM FEW090 M13/M14 A3048 RMK AC2 DA-3963FT SLP325 =

Support USWX by starting your Amazon purchase here.